Nashua, Iowa
Current Conditions -  °F | °C
As of 3:55 AM on Wednesday 26 Nov 2014 (Local Time) from KCCY Reporting Station
Unknown Precip Unknown Precip  
Wind Chill: 15°   Ceiling: 2500
Heat Index: 25°   Visibility: 5mi
Dew Point: 19°   Wind: 10mph
Humidity: 80%   Direction: 140°SE
Pressure: 30.01"   Gusts: NA
Location:  42.95°N, 92.54°W
Report Text: KCCY 260955Z AUTO 14009KT 5SM -UP FEW004 FEW010 OVC025 M04/M07 A3001 RMK AO2
Loading
Personal Weather Stations






























Interactive Weather Map New forecast layout! Learn more

10-Day Weather Forecast

Advertisements
Track Severe Weather on mobile